Time;durP1;ratioP1;P1;durP2;ratioP2;P2;SDS_P1;SDS_P2;PMS_P1;PMS_P2;Temp;Humidity;BMP_temperature;BMP_pressure;BME280_temperature;BME280_humidity;BME280_pressure;Samples;Min_cycle;Max_cycle;Signal;HPM_P1;HPM_P2
2022/02/26 00:01:19;;;;;;;12.25;5.80;;;19.40;91.50;;;;;;4143477;28;20645;-74
2022/02/26 00:03:22;;;;;;;10.70;5.57;;;19.40;91.40;;;;;;4145024;28;20713;-74
2022/02/26 00:05:25;;;;;;;10.88;4.90;;;19.30;91.40;;;;;;4143273;28;20237;-74
2022/02/26 00:07:27;;;;;;;12.70;5.20;;;19.30;91.40;;;;;;4145321;28;20617;-74
2022/02/26 00:09:29;;;;;;;11.82;5.20;;;19.30;91.40;;;;;;4145357;28;20282;-74
2022/02/26 00:11:34;;;;;;;9.00;5.13;;;19.30;91.40;;;;;;4145668;28;20221;-74
2022/02/26 00:13:36;;;;;;;11.38;5.53;;;19.30;91.70;;;;;;4145255;28;20670;-74
2022/02/26 00:15:38;;;;;;;9.32;5.38;;;19.30;91.40;;;;;;4145178;28;20217;-74
2022/02/26 00:17:41;;;;;;;9.05;4.72;;;19.30;91.40;;;;;;4144102;28;20225;-74
2022/02/26 00:19:45;;;;;;;10.45;5.03;;;19.30;91.40;;;;;;4145538;28;20233;-74
2022/02/26 00:21:47;;;;;;;10.65;5.28;;;19.30;91.30;;;;;;4145041;28;20259;-74
2022/02/26 00:23:49;;;;;;;10.25;4.93;;;19.30;91.30;;;;;;4145332;28;20297;-74
2022/02/26 00:25:52;;;;;;;9.73;5.18;;;19.30;91.30;;;;;;4145257;28;20221;-74
2022/02/26 00:27:54;;;;;;;10.57;4.97;;;19.30;91.30;;;;;;4144933;28;20213;-74
2022/02/26 00:29:56;;;;;;;12.07;5.88;;;19.30;91.30;;;;;;4146049;28;20624;-74
2022/02/26 00:31:59;;;;;;;7.72;5.10;;;19.20;91.30;;;;;;4148299;28;20243;-74
2022/02/26 00:34:01;;;;;;;10.50;5.15;;;19.30;91.30;;;;;;4147809;28;20217;-74
2022/02/26 00:36:05;;;;;;;12.02;5.32;;;19.20;91.20;;;;;;4147790;28;20274;-74
2022/02/26 00:38:08;;;;;;;12.05;5.35;;;19.30;91.30;;;;;;4148370;28;20552;-74
2022/02/26 00:40:12;;;;;;;8.90;5.20;;;19.30;91.60;;;;;;4148005;28;20221;-74
2022/02/26 00:42:14;;;;;;;9.15;5.10;;;19.20;91.30;;;;;;4148022;28;20275;-74
2022/02/26 00:44:17;;;;;;;9.95;5.13;;;19.20;91.20;;;;;;4148001;28;20221;-74
2022/02/26 00:46:20;;;;;;;9.63;5.15;;;19.20;91.20;;;;;;4148128;28;20271;-74
2022/02/26 00:49:46;;;;;;;11.48;5.55;;;19.20;91.20;;;;;;4148207;28;20267;-74
2022/02/26 00:50:44;;;;;;;9.93;5.45;;;19.20;91.20;;;;;;4146527;28;20225;-74
2022/02/26 00:52:48;;;;;;;9.45;5.38;;;19.20;91.20;;;;;;4147870;28;20596;-74
2022/02/26 00:54:51;;;;;;;10.43;4.85;;;19.10;91.20;;;;;;4147932;28;20416;-74
2022/02/26 00:56:53;;;;;;;10.52;5.53;;;19.20;91.30;;;;;;4147645;28;20561;-74
2022/02/26 00:58:56;;;;;;;9.00;5.43;;;19.10;91.20;;;;;;4147903;28;20717;-74
2022/02/26 01:00:58;;;;;;;10.27;5.75;;;19.20;91.20;;;;;;4147498;28;20216;-74
2022/02/26 01:03:01;;;;;;;8.82;5.63;;;19.10;91.20;;;;;;4147833;28;20240;-75
2022/02/26 01:05:04;;;;;;;10.52;5.20;;;19.10;91.20;;;;;;4147237;28;20295;-74
2022/02/26 01:07:08;;;;;;;8.65;5.10;;;19.10;91.20;;;;;;4146863;28;20217;-74
2022/02/26 01:09:12;;;;;;;8.98;5.07;;;19.10;91.20;;;;;;4147822;28;20217;-74
2022/02/26 01:11:14;;;;;;;10.75;4.82;;;19.10;91.20;;;;;;4147575;28;20271;-74
2022/02/26 01:13:16;;;;;;;10.82;5.30;;;19.10;91.20;;;;;;4147383;28;20209;-74
2022/02/26 01:15:18;;;;;;;8.55;5.15;;;19.10;91.20;;;;;;4147626;28;21006;-74
2022/02/26 01:17:21;;;;;;;12.07;5.80;;;19.10;91.20;;;;;;4147877;28;20225;-74
2022/02/26 01:19:23;;;;;;;9.15;5.45;;;19.10;91.20;;;;;;4147567;28;20217;-74
2022/02/26 01:21:26;;;;;;;9.77;5.07;;;19.00;91.10;;;;;;4147395;28;20255;-74
2022/02/26 01:23:28;;;;;;;10.73;5.05;;;19.10;91.10;;;;;;4146200;28;20275;-74
2022/02/26 01:25:32;;;;;;;8.57;5.18;;;19.10;91.20;;;;;;4147490;28;20221;-74
2022/02/26 01:27:34;;;;;;;12.13;5.35;;;19.00;91.10;;;;;;4147503;28;20276;-74
2022/02/26 01:29:37;;;;;;;10.98;6.15;;;19.10;91.10;;;;;;4147596;28;20604;-74
2022/02/26 01:31:39;;;;;;;10.18;5.35;;;19.10;91.10;;;;;;4147283;28;20221;-74
2022/02/26 01:33:42;;;;;;;10.90;5.75;;;19.00;91.10;;;;;;4147254;28;20359;-74
2022/02/26 01:35:44;;;;;;;12.93;6.15;;;19.00;91.10;;;;;;4146933;28;20238;-73
2022/02/26 01:37:47;;;;;;;10.65;5.32;;;19.00;91.10;;;;;;4146953;28;20225;-74
2022/02/26 01:39:49;;;;;;;10.73;5.85;;;19.00;91.10;;;;;;4146369;28;20296;-74
2022/02/26 01:41:55;;;;;;;11.65;5.80;;;19.00;91.10;;;;;;4145997;28;20616;-74
2022/02/26 01:43:57;;;;;;;9.23;5.90;;;19.00;91.10;;;;;;4147177;28;20241;-74
2022/02/26 01:46:00;;;;;;;12.18;5.60;;;19.00;91.10;;;;;;4146610;28;20217;-74
2022/02/26 01:48:02;;;;;;;11.32;5.85;;;19.00;91.10;;;;;;4139334;28;20279;-74
2022/02/26 01:50:06;;;;;;;11.80;5.88;;;19.00;91.00;;;;;;4145683;28;20246;-75
2022/02/26 01:52:10;;;;;;;9.73;6.00;;;18.90;91.40;;;;;;4146648;28;20271;-74
2022/02/26 01:54:12;;;;;;;9.88;5.68;;;19.00;91.00;;;;;;4146811;28;20213;-74
2022/02/26 01:56:15;;;;;;;12.18;6.03;;;18.90;91.00;;;;;;4146732;28;20960;-74
2022/02/26 01:58:19;;;;;;;10.32;5.68;;;18.90;91.00;;;;;;4146177;28;20630;-74
2022/02/26 02:00:22;;;;;;;13.25;6.53;;;18.90;91.30;;;;;;4146813;28;20217;-74
2022/02/26 02:02:24;;;;;;;9.02;5.63;;;18.90;90.90;;;;;;4146605;28;20572;-74
2022/02/26 02:04:26;;;;;;;11.68;6.00;;;18.90;90.90;;;;;;4146327;28;20303;-74
2022/02/26 02:06:30;;;;;;;9.70;5.65;;;18.90;90.90;;;;;;4146789;28;20611;-74
2022/02/26 02:08:32;;;;;;;11.38;5.97;;;18.90;91.00;;;;;;4146902;28;20217;-74
2022/02/26 02:10:36;;;;;;;11.70;6.32;;;18.90;91.00;;;;;;4146863;28;20217;-74
2022/02/26 02:12:38;;;;;;;11.10;5.68;;;18.90;91.10;;;;;;4146019;28;20225;-74
2022/02/26 02:14:45;;;;;;;10.20;5.78;;;18.90;91.00;;;;;;4146663;28;20623;-74
2022/02/26 02:16:47;;;;;;;12.48;6.03;;;18.80;90.90;;;;;;4146520;28;20271;-74
2022/02/26 02:18:49;;;;;;;10.88;5.65;;;18.90;91.00;;;;;;4146388;28;20213;-74
2022/02/26 02:20:52;;;;;;;10.98;5.78;;;18.80;90.80;;;;;;4146422;28;20240;-74
2022/02/26 02:22:56;;;;;;;10.65;5.55;;;18.90;90.90;;;;;;4146187;28;20212;-74
2022/02/26 02:24:58;;;;;;;10.32;6.05;;;18.90;90.90;;;;;;4146568;28;20294;-74
2022/02/26 02:27:02;;;;;;;12.13;6.10;;;18.80;90.90;;;;;;4146710;28;20221;-74
2022/02/26 02:29:04;;;;;;;10.45;5.72;;;18.80;90.90;;;;;;4146314;28;20217;-74
2022/02/26 02:31:07;;;;;;;10.15;5.65;;;18.80;90.90;;;;;;4144453;28;20221;-74
2022/02/26 02:33:10;;;;;;;9.15;5.63;;;18.80;90.90;;;;;;4146089;28;20209;-74
2022/02/26 02:35:24;;;;;;;11.35;6.78;;;18.80;90.80;;;;;;4146236;28;20217;-74
2022/02/26 02:37:26;;;;;;;9.18;5.32;;;18.80;90.80;;;;;;4146239;28;20260;-74
2022/02/26 02:39:30;;;;;;;9.45;5.40;;;18.80;90.80;;;;;;4145877;28;20247;-74
2022/02/26 02:41:32;;;;;;;9.43;5.30;;;18.80;90.80;;;;;;4145917;28;20271;-74
2022/02/26 02:43:35;;;;;;;8.60;4.97;;;18.80;90.80;;;;;;4146021;28;20328;-74
2022/02/26 02:45:39;;;;;;;12.50;6.30;;;18.80;90.80;;;;;;4146538;28;20639;-74
2022/02/26 02:47:41;;;;;;;8.43;5.10;;;18.70;90.80;;;;;;4146174;28;20276;-74
2022/02/26 02:49:44;;;;;;;10.25;5.72;;;18.70;90.80;;;;;;4144915;28;20271;-74
2022/02/26 02:51:46;;;;;;;11.35;6.00;;;18.80;90.80;;;;;;4146125;28;20271;-74
2022/02/26 02:53:48;;;;;;;9.98;5.45;;;18.70;90.80;;;;;;4145503;28;20217;-74
2022/02/26 02:55:53;;;;;;;9.90;5.50;;;18.70;90.80;;;;;;4145925;28;20653;-74
2022/02/26 02:57:56;;;;;;;9.98;5.35;;;18.70;90.80;;;;;;4146026;28;20670;-74
2022/02/26 02:59:58;;;;;;;10.10;5.43;;;18.70;90.80;;;;;;4146016;28;20275;-74
2022/02/26 03:02:01;;;;;;;10.05;5.85;;;18.70;90.70;;;;;;4145933;28;20279;-74
2022/02/26 03:04:03;;;;;;;10.80;5.93;;;18.70;90.70;;;;;;4145595;28;20299;-74
2022/02/26 03:06:06;;;;;;;10.68;6.15;;;18.60;90.70;;;;;;4145699;28;20264;-74
2022/02/26 03:08:09;;;;;;;10.95;5.20;;;18.70;90.80;;;;;;4144789;28;20225;-74
2022/02/26 03:10:11;;;;;;;10.68;5.68;;;18.70;90.70;;;;;;4145684;28;20259;-74
2022/02/26 03:12:15;;;;;;;10.10;5.72;;;18.70;90.80;;;;;;4145883;28;20221;-74
2022/02/26 03:14:17;;;;;;;11.82;6.43;;;18.70;90.70;;;;;;4146115;28;20267;-74
2022/02/26 03:16:19;;;;;;;10.48;5.95;;;18.60;90.70;;;;;;4145658;28;20271;-74
2022/02/26 03:18:23;;;;;;;9.25;5.55;;;18.70;90.70;;;;;;4145607;28;20213;-74
2022/02/26 03:20:25;;;;;;;11.32;6.10;;;18.60;90.70;;;;;;4145566;28;20221;-74
2022/02/26 03:22:27;;;;;;;9.98;5.43;;;18.70;90.70;;;;;;4145584;28;20209;-74
2022/02/26 03:24:30;;;;;;;10.70;6.00;;;18.70;90.70;;;;;;4144249;28;20599;-74
2022/02/26 03:26:33;;;;;;;11.45;5.47;;;18.60;90.70;;;;;;4146076;28;20951;-74
2022/02/26 03:28:37;;;;;;;9.63;5.38;;;18.60;90.70;;;;;;4145815;28;20221;-74
2022/02/26 03:30:39;;;;;;;8.85;5.72;;;18.60;90.60;;;;;;4145291;28;20275;-74
2022/02/26 03:32:42;;;;;;;8.45;5.15;;;18.60;90.70;;;;;;4145348;28;20205;-74
2022/02/26 03:34:46;;;;;;;9.60;5.60;;;18.60;90.70;;;;;;4141974;28;20213;-74
2022/02/26 03:36:51;;;;;;;10.27;5.43;;;18.60;90.60;;;;;;4142558;28;20209;-74
2022/02/26 03:38:53;;;;;;;8.30;5.53;;;18.60;90.60;;;;;;4145431;28;20221;-74
2022/02/26 03:40:55;;;;;;;9.30;5.75;;;18.60;90.60;;;;;;4145502;28;20275;-74
2022/02/26 03:42:57;;;;;;;9.13;5.70;;;18.60;90.60;;;;;;4143768;28;20267;-74
2022/02/26 03:45:01;;;;;;;9.95;5.57;;;18.60;90.60;;;;;;4145376;28;20255;-74
2022/02/26 03:47:05;;;;;;;9.95;5.32;;;18.50;90.60;;;;;;4145472;28;20225;-74
2022/02/26 03:49:08;;;;;;;9.27;5.95;;;18.50;90.60;;;;;;4145219;28;20271;-74
2022/02/26 03:51:12;;;;;;;10.50;5.78;;;18.50;90.60;;;;;;4145125;28;20291;-74
2022/02/26 03:53:14;;;;;;;13.15;5.63;;;18.50;90.50;;;;;;4145523;28;20612;-74
2022/02/26 03:55:16;;;;;;;7.28;5.18;;;18.50;90.50;;;;;;4145593;28;20629;-74
2022/02/26 03:57:19;;;;;;;8.30;5.15;;;18.50;90.60;;;;;;4145541;28;20607;-74
2022/02/26 03:59:22;;;;;;;9.50;5.82;;;18.50;90.50;;;;;;4143944;28;20271;-74
2022/02/26 04:01:25;;;;;;;10.38;6.03;;;18.50;90.70;;;;;;4145238;28;20225;-73
2022/02/26 04:03:28;;;;;;;9.38;5.65;;;18.50;90.60;;;;;;4144908;28;20217;-74
2022/02/26 04:05:30;;;;;;;11.60;5.78;;;18.50;90.60;;;;;;4146973;28;20279;-74
2022/02/26 04:07:32;;;;;;;9.45;5.25;;;18.50;90.60;;;;;;4148359;28;20217;-74
2022/02/26 04:09:35;;;;;;;7.90;4.97;;;18.50;90.50;;;;;;4149019;28;20266;-74
2022/02/26 04:11:37;;;;;;;9.98;5.15;;;18.50;90.70;;;;;;4148814;28;20268;-74
2022/02/26 04:13:40;;;;;;;9.05;5.60;;;18.40;90.50;;;;;;4148384;28;20259;-74
2022/02/26 04:15:42;;;;;;;9.13;5.38;;;18.50;90.60;;;;;;4148636;28;20624;-74
2022/02/26 04:17:46;;;;;;;8.00;4.97;;;18.50;90.90;;;;;;4147413;28;20221;-74
2022/02/26 04:19:48;;;;;;;9.18;5.30;;;18.50;90.50;;;;;;4148900;28;20217;-74
2022/02/26 04:21:50;;;;;;;9.35;5.53;;;18.50;90.50;;;;;;4148827;28;20221;-74
2022/02/26 04:23:53;;;;;;;7.82;5.32;;;18.40;90.50;;;;;;4148439;28;20221;-74
2022/02/26 04:25:55;;;;;;;9.20;5.22;;;18.40;90.50;;;;;;4148150;28;20237;-74
2022/02/26 04:27:58;;;;;;;8.57;5.50;;;18.50;90.50;;;;;;4148364;28;20260;-74
2022/02/26 04:30:00;;;;;;;8.63;5.47;;;18.40;90.40;;;;;;4148351;28;20736;-74
2022/02/26 04:32:03;;;;;;;9.95;5.28;;;18.40;90.40;;;;;;4147326;28;20267;-74
2022/02/26 04:34:07;;;;;;;10.07;5.65;;;18.40;90.40;;;;;;4148088;28;20284;-74
2022/02/26 04:36:09;;;;;;;11.60;5.47;;;18.40;90.40;;;;;;4148225;28;20271;-74
2022/02/26 04:38:12;;;;;;;10.20;5.28;;;18.40;90.40;;;;;;4148412;28;20288;-74
2022/02/26 04:40:15;;;;;;;11.32;5.28;;;18.40;90.40;;;;;;4148328;28;20201;-74
2022/02/26 04:42:18;;;;;;;8.52;5.35;;;18.40;90.40;;;;;;4147937;28;20217;-74
2022/02/26 04:44:20;;;;;;;11.32;5.40;;;18.40;90.50;;;;;;4147829;28;20263;-74
2022/02/26 04:46:23;;;;;;;9.48;5.03;;;18.40;90.40;;;;;;4148020;28;20279;-74
2022/02/26 04:48:25;;;;;;;9.32;5.38;;;18.40;90.50;;;;;;4148008;28;20225;-75
2022/02/26 04:50:29;;;;;;;7.63;5.05;;;18.40;90.40;;;;;;4147003;28;20217;-74
2022/02/26 04:52:31;;;;;;;10.65;5.63;;;18.40;90.50;;;;;;4147316;28;20678;-74
2022/02/26 04:54:34;;;;;;;10.65;5.30;;;18.40;90.50;;;;;;4148161;28;20253;-74
2022/02/26 04:56:37;;;;;;;10.05;5.18;;;18.30;90.50;;;;;;4147528;28;20213;-74
2022/02/26 04:58:40;;;;;;;8.50;5.35;;;18.30;90.80;;;;;;4147983;28;20297;-74
2022/02/26 05:00:42;;;;;;;8.05;5.15;;;18.30;90.40;;;;;;4147956;28;20225;-74
2022/02/26 05:02:45;;;;;;;8.95;5.38;;;18.40;90.40;;;;;;4147848;28;20217;-74
2022/02/26 05:04:47;;;;;;;8.27;5.32;;;18.30;90.70;;;;;;4147361;28;20336;-74
2022/02/26 05:06:51;;;;;;;9.25;4.85;;;18.30;90.40;;;;;;4147606;28;20225;-74
2022/02/26 05:08:53;;;;;;;10.00;5.40;;;18.30;90.40;;;;;;4145332;28;20267;-74
2022/02/26 05:10:55;;;;;;;8.13;4.95;;;18.30;90.30;;;;;;4147651;28;20287;-74
2022/02/26 05:12:58;;;;;;;9.23;5.40;;;18.30;90.30;;;;;;4146671;28;20217;-74
2022/02/26 05:15:00;;;;;;;10.43;5.25;;;18.30;90.30;;;;;;4147715;28;20213;-74
2022/02/26 05:17:02;;;;;;;7.18;4.82;;;18.30;90.40;;;;;;4147298;28;20225;-74
2022/02/26 05:19:05;;;;;;;10.05;4.80;;;18.30;90.30;;;;;;4147322;28;20221;-74
2022/02/26 05:21:07;;;;;;;8.00;4.63;;;18.30;90.40;;;;;;4147534;28;20625;-74
2022/02/26 05:23:11;;;;;;;9.80;4.97;;;18.30;90.30;;;;;;4144610;28;20221;-74
2022/02/26 05:25:13;;;;;;;8.20;4.97;;;18.20;90.30;;;;;;4144590;28;20637;-74
2022/02/26 05:27:16;;;;;;;8.57;5.18;;;18.20;90.30;;;;;;4144740;28;20225;-74
2022/02/26 05:29:19;;;;;;;7.47;4.88;;;18.30;90.30;;;;;;4147575;28;20636;-74
2022/02/26 05:31:22;;;;;;;8.20;5.18;;;18.30;90.30;;;;;;4147345;28;20235;-74
2022/02/26 05:33:24;;;;;;;8.13;4.82;;;18.30;90.30;;;;;;4147313;28;20221;-74
2022/02/26 05:35:27;;;;;;;9.55;5.18;;;18.20;90.20;;;;;;4147371;28;20221;-74
2022/02/26 05:37:29;;;;;;;7.78;5.10;;;18.20;90.20;;;;;;4147418;28;20610;-74
2022/02/26 05:39:33;;;;;;;11.82;5.28;;;18.20;90.30;;;;;;4147320;28;20612;-74
2022/02/26 05:41:35;;;;;;;9.70;5.13;;;18.20;90.20;;;;;;4147502;28;20257;-74
2022/02/26 05:43:37;;;;;;;8.27;4.75;;;18.20;90.20;;;;;;4146076;28;20736;-73
2022/02/26 05:45:41;;;;;;;8.73;4.60;;;18.20;90.20;;;;;;4146709;28;20895;-74
2022/02/26 05:47:43;;;;;;;8.23;4.97;;;18.10;90.20;;;;;;4146955;28;20291;-74
2022/02/26 05:49:45;;;;;;;9.50;5.10;;;18.20;90.20;;;;;;4146846;28;20744;-74
2022/02/26 05:51:48;;;;;;;9.25;5.28;;;18.20;90.20;;;;;;4147389;28;20276;-74
2022/02/26 05:53:50;;;;;;;8.63;4.93;;;18.20;90.20;;;;;;4146877;28;20217;-74
2022/02/26 05:55:54;;;;;;;7.15;4.63;;;18.10;90.10;;;;;;4147123;28;20609;-74
2022/02/26 05:57:56;;;;;;;8.23;5.03;;;18.20;90.20;;;;;;4147034;28;20221;-75
2022/02/26 05:59:58;;;;;;;6.93;4.43;;;18.20;90.20;;;;;;4146626;28;20225;-74
2022/02/26 06:02:01;;;;;;;8.88;5.00;;;18.20;90.20;;;;;;4145863;28;20217;-74
2022/02/26 06:04:03;;;;;;;7.55;4.88;;;18.10;90.10;;;;;;4146713;28;20233;-74
2022/02/26 06:06:05;;;;;;;7.60;5.00;;;18.10;90.10;;;;;;4146801;28;20267;-74
2022/02/26 06:08:08;;;;;;;7.80;4.78;;;18.20;90.20;;;;;;4146797;28;20225;-74
2022/02/26 06:10:10;;;;;;;11.05;5.03;;;18.10;90.20;;;;;;4146804;28;20217;-74
2022/02/26 06:12:14;;;;;;;10.30;5.38;;;18.10;90.10;;;;;;4146694;28;20221;-74
2022/02/26 06:14:16;;;;;;;8.85;5.00;;;18.10;90.10;;;;;;4146590;28;20221;-74
2022/02/26 06:16:19;;;;;;;7.85;4.60;;;18.10;90.10;;;;;;4146756;28;20712;-74
2022/02/26 06:18:21;;;;;;;7.55;4.88;;;18.10;90.10;;;;;;4145469;28;20251;-74
2022/02/26 06:20:24;;;;;;;8.93;4.72;;;18.10;90.10;;;;;;4146515;28;20255;-74
2022/02/26 06:22:26;;;;;;;8.52;4.65;;;18.10;90.10;;;;;;4146659;28;20220;-74
2022/02/26 06:24:28;;;;;;;8.48;4.90;;;18.10;90.20;;;;;;4146288;28;20227;-74
2022/02/26 06:26:32;;;;;;;7.68;4.57;;;18.10;90.20;;;;;;4146365;28;20233;-74
2022/02/26 06:28:35;;;;;;;9.32;4.82;;;18.10;90.20;;;;;;4145692;28;20225;-74
2022/02/26 06:30:38;;;;;;;12.15;5.80;;;18.10;90.10;;;;;;4146511;28;20264;-74
2022/02/26 06:32:40;;;;;;;9.63;5.00;;;18.10;90.10;;;;;;4146299;28;20263;-74
2022/02/26 06:34:43;;;;;;;8.73;4.45;;;18.10;90.10;;;;;;4146479;28;20629;-74
2022/02/26 06:36:45;;;;;;;8.93;5.07;;;18.10;90.10;;;;;;4145362;28;20213;-74
2022/02/26 06:38:47;;;;;;;8.70;4.72;;;18.10;90.50;;;;;;4146157;28;20229;-74
2022/02/26 06:40:50;;;;;;;7.45;4.65;;;18.00;90.10;;;;;;4146311;28;20259;-74
2022/02/26 06:42:52;;;;;;;9.32;4.95;;;18.00;90.10;;;;;;4146372;28;20271;-74
2022/02/26 06:44:56;;;;;;;8.40;4.75;;;18.10;90.20;;;;;;4146294;28;20217;-74
2022/02/26 06:46:58;;;;;;;11.05;5.30;;;18.00;90.20;;;;;;4145954;28;20299;-74
2022/02/26 06:49:01;;;;;;;8.18;4.80;;;18.00;90.10;;;;;;4146029;28;20279;-74
2022/02/26 06:51:03;;;;;;;8.50;4.50;;;18.00;90.10;;;;;;4145163;28;20275;-74
2022/02/26 06:53:05;;;;;;;9.57;5.32;;;18.00;90.10;;;;;;4144006;28;20221;-74
2022/02/26 06:55:08;;;;;;;8.57;4.53;;;18.10;90.20;;;;;;4146250;28;20271;-74
2022/02/26 06:57:11;;;;;;;8.40;4.82;;;18.00;90.10;;;;;;4146420;28;20636;-74
2022/02/26 06:59:13;;;;;;;9.82;4.55;;;18.00;90.20;;;;;;4146080;28;20670;-74
2022/02/26 07:01:17;;;;;;;9.43;4.82;;;18.00;90.20;;;;;;4145957;28;20271;-74
2022/02/26 07:03:19;;;;;;;9.32;4.55;;;18.00;90.20;;;;;;4145605;28;20759;-74
2022/02/26 07:05:21;;;;;;;7.85;4.32;;;18.00;90.20;;;;;;4145669;28;20241;-74
2022/02/26 07:07:24;;;;;;;11.68;4.50;;;18.00;90.30;;;;;;4146072;28;21151;-74
2022/02/26 07:09:27;;;;;;;5.68;4.10;;;18.00;90.20;;;;;;4144871;28;20216;-74
2022/02/26 07:11:29;;;;;;;8.05;4.35;;;18.00;90.30;;;;;;4142409;28;20271;-74
2022/02/26 07:13:32;;;;;;;9.35;4.90;;;18.00;90.20;;;;;;4143006;28;20259;-74
2022/02/26 07:15:35;;;;;;;6.65;4.53;;;18.00;90.20;;;;;;4145771;28;20213;-74
2022/02/26 07:17:39;;;;;;;7.88;4.63;;;18.00;90.30;;;;;;4145866;28;20217;-74
2022/02/26 07:19:41;;;;;;;8.00;5.15;;;18.00;90.20;;;;;;4146023;28;20205;-74
2022/02/26 07:21:44;;;;;;;8.38;5.13;;;18.00;90.30;;;;;;4146139;28;20232;-74
2022/02/26 07:23:46;;;;;;;10.18;4.95;;;18.00;90.20;;;;;;4145825;28;20267;-74
2022/02/26 07:25:48;;;;;;;8.55;4.55;;;18.00;90.30;;;;;;4144667;28;20278;-74
2022/02/26 07:27:51;;;;;;;9.15;4.90;;;18.00;90.40;;;;;;4145547;28;20779;-74
2022/02/26 07:29:53;;;;;;;7.70;4.50;;;18.00;90.40;;;;;;4145549;28;20260;-74
2022/02/26 07:31:56;;;;;;;6.80;4.65;;;18.00;90.20;;;;;;4145738;28;20690;-74
2022/02/26 07:33:59;;;;;;;9.60;4.82;;;18.00;90.30;;;;;;4146135;28;20220;-74
2022/02/26 07:36:02;;;;;;;8.75;4.57;;;18.00;90.30;;;;;;4145698;28;20270;-74
2022/02/26 07:38:05;;;;;;;7.78;4.78;;;18.00;90.20;;;;;;4145550;28;20717;-74
2022/02/26 07:40:09;;;;;;;8.32;4.70;;;18.00;90.30;;;;;;4145155;28;20572;-74
2022/02/26 07:42:11;;;;;;;8.05;4.43;;;18.00;90.30;;;;;;4143518;28;20217;-74
2022/02/26 07:44:13;;;;;;;8.50;4.57;;;18.00;90.30;;;;;;4145684;28;20221;-74
2022/02/26 07:46:16;;;;;;;8.20;5.07;;;18.00;90.20;;;;;;4145608;28;20279;-74
2022/02/26 07:48:18;;;;;;;6.90;4.30;;;18.00;90.30;;;;;;4145829;28;20279;-74
2022/02/26 07:50:22;;;;;;;9.20;4.75;;;18.00;90.30;;;;;;4145665;28;20677;-74
2022/02/26 07:52:27;;;;;;;7.32;4.50;;;18.00;90.30;;;;;;4145526;28;20276;-74
2022/02/26 07:54:29;;;;;;;10.55;5.00;;;18.00;90.30;;;;;;4145115;28;20216;-74
2022/02/26 07:56:32;;;;;;;8.65;4.78;;;18.00;90.60;;;;;;4145359;28;20218;-74
2022/02/26 07:58:34;;;;;;;7.28;4.22;;;18.00;90.30;;;;;;4144273;28;20221;-74
2022/02/26 08:00:36;;;;;;;9.25;4.80;;;18.00;90.20;;;;;;4145812;28;20279;-74
2022/02/26 08:02:39;;;;;;;9.98;5.03;;;18.00;90.20;;;;;;4145586;28;20267;-74
2022/02/26 08:04:41;;;;;;;11.13;4.93;;;17.90;90.10;;;;;;4145034;28;20705;-74
2022/02/26 08:06:45;;;;;;;9.65;5.10;;;17.80;90.30;;;;;;4145159;28;20340;-74
2022/02/26 08:08:47;;;;;;;9.80;4.93;;;17.70;90.50;;;;;;4145411;28;20221;-74
2022/02/26 08:10:50;;;;;;;7.95;4.63;;;17.80;90.50;;;;;;4142256;28;20612;-74
2022/02/26 08:12:53;;;;;;;10.45;4.65;;;17.90;90.40;;;;;;4142925;28;20586;-74
2022/02/26 08:14:55;;;;;;;7.32;4.38;;;17.90;90.30;;;;;;4145628;28;21660;-74
2022/02/26 08:16:58;;;;;;;15.65;4.57;;;18.00;90.40;;;;;;4143178;28;20263;-74
2022/02/26 08:19:00;;;;;;;10.93;4.63;;;18.00;90.40;;;;;;4145047;28;20212;-74
2022/02/26 08:21:03;;;;;;;7.70;4.47;;;18.00;90.50;;;;;;4145269;28;20212;-73
2022/02/26 08:23:07;;;;;;;8.60;4.32;;;18.10;90.70;;;;;;4145055;28;20217;-74
2022/02/26 08:25:10;;;;;;;8.57;4.57;;;18.00;90.70;;;;;;4145199;28;20673;-74
2022/02/26 08:27:13;;;;;;;8.65;4.57;;;18.10;90.90;;;;;;4145405;28;20291;-74
2022/02/26 08:29:16;;;;;;;9.95;4.53;;;18.10;91.00;;;;;;4145358;28;20748;-74
2022/02/26 08:31:18;;;;;;;7.80;4.45;;;18.10;91.10;;;;;;4144755;28;20213;-74
2022/02/26 08:33:21;;;;;;;7.55;4.40;;;18.10;91.20;;;;;;4143235;28;20270;-74
2022/02/26 08:35:23;;;;;;;6.90;4.30;;;18.20;91.30;;;;;;4145027;28;20279;-74
2022/02/26 08:37:25;;;;;;;8.40;4.38;;;18.10;91.40;;;;;;4145136;28;20614;-74
2022/02/26 08:39:30;;;;;;;9.68;4.53;;;18.20;91.60;;;;;;4145148;28;20288;-74
2022/02/26 08:41:32;;;;;;;10.55;4.47;;;18.20;91.50;;;;;;4145303;28;20216;-74
2022/02/26 08:43:35;;;;;;;8.68;4.32;;;18.20;91.70;;;;;;4144935;28;20213;-74
2022/02/26 08:45:37;;;;;;;7.82;4.03;;;18.20;91.70;;;;;;4144882;28;20221;-74
2022/02/26 08:47:40;;;;;;;7.25;4.32;;;18.20;91.70;;;;;;4144734;28;20752;-74
2022/02/26 08:49:43;;;;;;;8.82;4.53;;;18.20;91.80;;;;;;4144338;28;20275;-74
2022/02/26 08:51:45;;;;;;;8.48;4.45;;;18.20;91.70;;;;;;4146713;28;20259;-74
2022/02/26 08:53:48;;;;;;;9.15;4.38;;;18.30;91.80;;;;;;4148072;28;20315;-74
2022/02/26 08:55:51;;;;;;;6.28;3.90;;;18.30;91.90;;;;;;4148122;28;20217;-74
2022/02/26 08:57:57;;;;;;;9.57;4.28;;;18.30;91.90;;;;;;4148266;28;20233;-74
2022/02/26 09:00:00;;;;;;;12.13;4.50;;;18.30;92.00;;;;;;4147736;28;20271;-74
2022/02/26 09:02:02;;;;;;;7.18;3.55;;;18.30;92.00;;;;;;4147576;28;20568;-74
2022/02/26 09:04:05;;;;;;;9.40;3.75;;;18.30;92.00;;;;;;4147480;28;20291;-74
2022/02/26 09:06:08;;;;;;;8.18;3.63;;;18.30;91.90;;;;;;4148038;28;20268;-74
2022/02/26 09:08:10;;;;;;;7.55;3.45;;;18.30;92.00;;;;;;4146836;28;20585;-74
2022/02/26 09:10:14;;;;;;;7.68;3.97;;;18.30;92.10;;;;;;4147614;28;20241;-74
2022/02/26 09:12:17;;;;;;;9.52;3.22;;;18.30;92.10;;;;;;4147492;28;20217;-74
2022/02/26 09:14:20;;;;;;;6.85;3.30;;;18.40;92.20;;;;;;4147432;28;20283;-74
2022/02/26 09:16:22;;;;;;;6.22;3.65;;;18.40;92.20;;;;;;4147636;28;20221;-74
2022/02/26 09:18:25;;;;;;;8.88;3.72;;;18.40;92.30;;;;;;4143865;28;20325;-74
2022/02/26 09:20:27;;;;;;;7.53;3.47;;;18.40;92.30;;;;;;4144622;28;20251;-74
2022/02/26 09:22:29;;;;;;;9.77;3.97;;;18.40;92.40;;;;;;4147713;28;20214;-74
2022/02/26 09:24:33;;;;;;;8.07;3.42;;;18.40;92.40;;;;;;4147573;28;20213;-74
2022/02/26 09:26:35;;;;;;;7.10;3.67;;;18.40;92.50;;;;;;4146130;28;20283;-74
2022/02/26 09:28:40;;;;;;;9.75;3.63;;;18.40;92.50;;;;;;4147274;28;20531;-74
2022/02/26 09:30:42;;;;;;;7.43;3.45;;;18.40;92.40;;;;;;4147565;28;20275;-74
2022/02/26 09:32:47;;;;;;;7.20;3.53;;;18.50;92.60;;;;;;4148560;28;20255;-74
2022/02/26 09:34:49;;;;;;;6.82;3.50;;;18.40;92.50;;;;;;4149118;28;20619;-74
2022/02/26 09:36:53;;;;;;;8.50;4.32;;;18.50;92.50;;;;;;4149410;28;20259;-74
2022/02/26 09:38:55;;;;;;;8.43;4.03;;;18.40;92.50;;;;;;4149083;28;20251;-73
2022/02/26 09:41:01;;;;;;;7.53;3.50;;;18.50;92.60;;;;;;4149061;28;20321;-73
2022/02/26 09:43:04;;;;;;;9.60;3.90;;;18.50;92.70;;;;;;4148769;28;20221;-74
2022/02/26 09:45:09;;;;;;;9.50;4.20;;;18.50;92.70;;;;;;4139691;28;20214;-74
2022/02/26 09:47:13;;;;;;;10.48;3.97;;;18.50;92.60;;;;;;4132521;28;20218;-74
2022/02/26 09:49:15;;;;;;;6.55;3.83;;;18.50;92.60;;;;;;4132435;28;20237;-74
2022/02/26 09:51:17;;;;;;;10.45;4.45;;;18.50;92.70;;;;;;4132603;28;20221;-74
2022/02/26 09:53:22;;;;;;;8.38;3.70;;;18.50;92.70;;;;;;4132596;28;20217;-74
2022/02/26 09:55:24;;;;;;;8.13;3.97;;;18.50;92.70;;;;;;4132556;28;20214;-74
2022/02/26 09:57:26;;;;;;;8.00;3.88;;;18.60;92.80;;;;;;4132595;28;20221;-74
2022/02/26 09:59:29;;;;;;;11.00;4.07;;;18.50;92.60;;;;;;4132590;28;20222;-74
2022/02/26 10:01:32;;;;;;;7.80;4.40;;;18.50;92.60;;;;;;4138986;28;20728;-74
2022/02/26 10:03:37;;;;;;;7.82;3.90;;;18.50;92.60;;;;;;4147522;28;20209;-74
2022/02/26 10:05:39;;;;;;;6.70;4.18;;;18.60;92.70;;;;;;4148314;28;20220;-74
2022/02/26 10:07:42;;;;;;;7.88;4.20;;;18.50;92.80;;;;;;4149423;28;20220;-77
2022/02/26 10:09:46;;;;;;;8.77;4.35;;;18.50;92.70;;;;;;4149440;28;20632;-77
2022/02/26 10:11:48;;;;;;;7.40;3.92;;;18.60;92.90;;;;;;4149902;28;20624;-77
2022/02/26 10:13:50;;;;;;;8.90;4.07;;;18.60;93.00;;;;;;4149198;28;20666;-78
2022/02/26 10:15:53;;;;;;;6.80;3.55;;;18.60;92.90;;;;;;4149290;28;20272;-78
2022/02/26 10:18:06;;;;;;;8.07;4.20;;;18.60;92.80;;;;;;4149356;28;20213;-77
2022/02/26 10:20:13;;;;;;;7.28;4.20;;;18.60;93.00;;;;;;4140056;28;20277;-77
2022/02/26 10:22:15;;;;;;;8.35;4.25;;;18.60;92.80;;;;;;4136630;28;20541;-77
2022/02/26 10:24:18;;;;;;;9.27;3.90;;;18.60;92.70;;;;;;4149324;28;20220;-77
2022/02/26 10:26:26;;;;;;;10.32;3.88;;;18.60;92.60;;;;;;4149048;28;20217;-77
2022/02/26 10:28:33;;;;;;;6.90;3.55;;;18.60;92.70;;;;;;4148708;28;20306;-77
2022/02/26 10:30:38;;;;;;;8.95;4.00;;;18.60;93.10;;;;;;4149295;28;20217;-77
2022/02/26 10:32:41;;;;;;;7.18;3.80;;;18.60;92.90;;;;;;4149126;28;20267;-77
2022/02/26 10:34:46;;;;;;;8.18;3.92;;;18.60;93.00;;;;;;4146292;28;20578;-77
2022/02/26 10:36:57;;;;;;;6.75;3.58;;;18.70;93.10;;;;;;4144964;28;20287;-77